Ralston, Oklahoma
Current Conditions -  °F | °C
As of 5:53 AM on Thursday 27 Nov 2014 (Local Time) from KPNC Reporting Station
Clear Clear  
Wind Chill: 19°   Ceiling: Unl
Heat Index: 26°   Visibility: 10mi
Dew Point: 20°   Wind: 6mph
Humidity: 78%   Direction: 40°NE
Pressure: 30.5"   Gusts: NA
Location:  36.5°N, 96.73°W
Report Text: KPNC 271153Z AUTO 04005KT 10SM CLR M03/M07 A3050 RMK AO2 SLP335 T10331067 10000 21044 50003
Loading
Personal Weather Stations






























Interactive Weather Map New forecast layout! Learn more

10-Day Weather Forecast

Advertisements
Track Severe Weather on mobile